createdAt,value
2022-11-03T00:00:45.325Z,3.1
2022-11-03T00:01:45.384Z,3.1
2022-11-03T00:02:45.325Z,3
2022-11-03T00:03:45.262Z,3
2022-11-03T00:04:45.410Z,2.9
2022-11-03T00:05:45.290Z,2.9
2022-11-03T00:06:45.259Z,2.8
2022-11-03T00:07:45.258Z,2.8
2022-11-03T00:08:45.291Z,2.8
2022-11-03T00:09:45.303Z,2.8
2022-11-03T00:10:45.274Z,2.8
2022-11-03T00:11:45.285Z,2.8
2022-11-03T00:12:45.311Z,2.8
2022-11-03T00:13:45.273Z,2.8
2022-11-03T00:14:45.301Z,2.8
2022-11-03T00:15:45.288Z,2.8
2022-11-03T00:16:45.282Z,2.8
2022-11-03T00:17:45.289Z,2.8
2022-11-03T00:18:45.268Z,2.8
2022-11-03T00:19:45.297Z,2.8
2022-11-03T00:20:45.293Z,2.7
2022-11-03T00:21:45.334Z,2.7
2022-11-03T00:22:45.292Z,2.7
2022-11-03T00:23:45.311Z,2.7
2022-11-03T00:24:45.412Z,2.7
2022-11-03T00:25:45.294Z,2.7
2022-11-03T00:26:45.313Z,2.7
2022-11-03T00:27:45.311Z,2.7
2022-11-03T00:28:45.320Z,2.7
2022-11-03T00:29:45.331Z,2.7
2022-11-03T00:30:45.321Z,2.7
2022-11-03T00:31:45.334Z,2.6
2022-11-03T00:32:45.419Z,2.6
2022-11-03T00:33:45.317Z,2.6
2022-11-03T00:34:45.343Z,2.6
2022-11-03T00:35:45.321Z,2.6
2022-11-03T00:36:45.337Z,2.6
2022-11-03T00:37:45.394Z,2.6
2022-11-03T00:38:45.355Z,2.6
2022-11-03T00:39:45.363Z,2.6
2022-11-03T00:40:45.380Z,2.6
2022-11-03T00:41:45.360Z,2.6
2022-11-03T00:42:45.397Z,2.6
2022-11-03T00:43:45.401Z,2.6
2022-11-03T00:44:45.378Z,2.6
2022-11-03T00:45:45.374Z,2.6
2022-11-03T00:46:45.363Z,2.6
2022-11-03T00:47:45.434Z,2.6
2022-11-03T00:48:45.401Z,2.6
2022-11-03T00:49:45.390Z,2.6
2022-11-03T00:50:45.658Z,2.6
2022-11-03T00:51:45.402Z,2.6
2022-11-03T00:52:45.410Z,2.6
2022-11-03T00:53:45.409Z,2.6
2022-11-03T00:54:45.608Z,2.6
2022-11-03T00:55:45.389Z,2.6
2022-11-03T00:56:45.397Z,2.7
2022-11-03T00:57:45.441Z,2.7
2022-11-03T00:58:45.460Z,2.7
2022-11-03T00:59:45.447Z,2.7
2022-11-03T01:00:45.447Z,2.8
2022-11-03T01:01:47.440Z,2.8
2022-11-03T01:02:45.443Z,2.8
2022-11-03T01:03:45.425Z,2.8
2022-11-03T01:04:45.434Z,2.8
2022-11-03T01:05:45.421Z,2.8
2022-11-03T01:06:45.423Z,2.8
2022-11-03T01:07:45.514Z,2.8
2022-11-03T01:08:45.426Z,2.8
2022-11-03T01:09:45.471Z,2.8
2022-11-03T01:10:45.432Z,2.7
2022-11-03T01:11:45.460Z,2.7
2022-11-03T01:12:45.473Z,2.6
2022-11-03T01:13:45.480Z,2.6
2022-11-03T01:14:45.602Z,2.6
2022-11-03T01:15:45.454Z,2.5
2022-11-03T01:16:45.484Z,2.5
2022-11-03T01:17:45.472Z,2.5
2022-11-03T01:18:45.482Z,2.5
2022-11-03T01:19:45.478Z,2.5
2022-11-03T01:20:45.479Z,2.5
2022-11-03T01:21:45.507Z,2.5
2022-11-03T01:22:45.497Z,2.4
2022-11-03T01:23:45.481Z,2.4
2022-11-03T01:24:45.533Z,2.4
2022-11-03T01:25:45.524Z,2.4
2022-11-03T01:26:45.498Z,2.4
2022-11-03T01:27:45.500Z,2.3
2022-11-03T01:28:45.507Z,2.3
2022-11-03T01:29:45.506Z,2.3
2022-11-03T01:30:45.525Z,2.3
2022-11-03T01:31:45.520Z,2.3
2022-11-03T01:32:45.528Z,2.3
2022-11-03T01:33:45.497Z,2.3
2022-11-03T01:34:45.518Z,2.3
2022-11-03T01:35:45.503Z,2.2
2022-11-03T01:36:45.535Z,2.3
2022-11-03T01:37:45.541Z,2.3
2022-11-03T01:38:45.521Z,2.3
2022-11-03T01:39:45.552Z,2.4
2022-11-03T01:40:45.519Z,2.4
2022-11-03T01:41:45.565Z,2.4
2022-11-03T01:42:45.529Z,2.5
2022-11-03T01:43:45.539Z,2.5
2022-11-03T01:44:45.545Z,2.5
2022-11-03T01:45:45.546Z,2.5
2022-11-03T01:46:45.540Z,2.5
2022-11-03T01:47:45.606Z,2.5
2022-11-03T01:48:45.572Z,2.5
2022-11-03T01:49:45.576Z,2.4
2022-11-03T01:50:45.538Z,2.4
2022-11-03T01:51:45.557Z,2.3
2022-11-03T01:52:45.559Z,2.3
2022-11-03T01:53:45.551Z,2.3
2022-11-03T01:54:45.596Z,2.2
2022-11-03T01:55:45.553Z,2.2
2022-11-03T01:56:45.584Z,2.2
2022-11-03T01:57:45.619Z,2.2
2022-11-03T01:58:45.595Z,2.1
2022-11-03T01:59:45.632Z,2.1
2022-11-03T02:00:45.634Z,2.1
2022-11-03T02:01:45.721Z,2
2022-11-03T02:02:45.600Z,2
2022-11-03T02:03:45.593Z,2
2022-11-03T02:04:45.592Z,1.9
2022-11-03T02:05:45.600Z,1.9
2022-11-03T02:06:45.596Z,1.9
2022-11-03T02:07:45.583Z,1.8
2022-11-03T02:08:45.614Z,1.8
2022-11-03T02:09:45.624Z,1.8
2022-11-03T02:10:45.607Z,1.8
2022-11-03T02:11:45.600Z,1.8
2022-11-03T02:12:45.639Z,1.8
2022-11-03T02:13:45.651Z,1.8
2022-11-03T02:14:45.636Z,1.8
2022-11-03T02:15:45.611Z,1.9
2022-11-03T02:16:47.840Z,1.9
2022-11-03T02:17:45.630Z,1.9
2022-11-03T02:18:45.624Z,1.9
2022-11-03T02:19:45.646Z,1.9
2022-11-03T02:20:45.624Z,1.9
2022-11-03T02:21:45.622Z,1.9
2022-11-03T02:22:45.644Z,1.9
2022-11-03T02:23:45.636Z,1.9
2022-11-03T02:24:48.578Z,2
2022-11-03T02:25:45.635Z,2
2022-11-03T02:26:45.654Z,2
2022-11-03T02:27:45.657Z,2
2022-11-03T02:28:45.673Z,2
2022-11-03T02:29:45.696Z,2
2022-11-03T02:30:45.650Z,2
2022-11-03T02:31:45.683Z,2
2022-11-03T02:32:45.684Z,2.1
2022-11-03T02:33:45.683Z,2.1
2022-11-03T02:34:45.837Z,2.1
2022-11-03T02:35:45.675Z,2.1
2022-11-03T02:36:45.679Z,2.1
2022-11-03T02:37:45.698Z,2
2022-11-03T02:38:45.698Z,2
2022-11-03T02:39:45.718Z,2
2022-11-03T02:40:45.694Z,1.9
2022-11-03T02:41:45.702Z,1.9
2022-11-03T02:42:45.704Z,1.8
2022-11-03T02:43:45.708Z,1.8
2022-11-03T02:44:45.724Z,1.8
2022-11-03T02:45:45.734Z,1.7
2022-11-03T02:46:45.700Z,1.7
2022-11-03T02:47:45.707Z,1.7
2022-11-03T02:48:45.714Z,1.8
2022-11-03T02:49:45.778Z,1.8
2022-11-03T02:50:45.720Z,1.8
2022-11-03T02:51:45.717Z,1.9
2022-11-03T02:52:45.709Z,1.9
2022-11-03T02:53:45.727Z,1.9
2022-11-03T02:54:45.726Z,2
2022-11-03T02:55:45.712Z,2
2022-11-03T02:56:45.742Z,2
2022-11-03T02:57:45.727Z,2
2022-11-03T02:58:45.720Z,2
2022-11-03T02:59:45.740Z,2.1
2022-11-03T03:00:45.782Z,2.1
2022-11-03T03:01:45.911Z,2.1
2022-11-03T03:02:45.723Z,2.1
2022-11-03T03:03:45.748Z,2.1
2022-11-03T03:04:45.758Z,2.1
2022-11-03T03:05:45.790Z,2.1
2022-11-03T03:06:45.767Z,2.1
2022-11-03T03:07:45.756Z,2.1
2022-11-03T03:08:45.744Z,2.2
2022-11-03T03:09:45.765Z,2.2
2022-11-03T03:10:45.765Z,2.2
2022-11-03T03:11:45.757Z,2.2
2022-11-03T03:12:45.766Z,2.2
2022-11-03T03:13:45.756Z,2.3
2022-11-03T03:14:45.765Z,2.3
2022-11-03T03:15:45.768Z,2.3
2022-11-03T03:16:45.799Z,2.3
2022-11-03T03:17:45.835Z,2.3
2022-11-03T03:18:45.777Z,2.2
2022-11-03T03:19:45.972Z,2.2
2022-11-03T03:20:45.792Z,2.2
2022-11-03T03:21:45.771Z,2.1
2022-11-03T03:22:45.771Z,2.1
2022-11-03T03:23:45.796Z,2
2022-11-03T03:24:45.800Z,2
2022-11-03T03:25:45.793Z,1.9
2022-11-03T03:26:45.798Z,1.9
2022-11-03T03:27:45.806Z,1.8
2022-11-03T03:28:45.788Z,1.8
2022-11-03T03:29:45.797Z,1.7
2022-11-03T03:30:45.781Z,1.7
2022-11-03T03:31:45.814Z,1.7
2022-11-03T03:32:45.780Z,1.7
2022-11-03T03:33:47.558Z,1.7
2022-11-03T03:34:45.807Z,1.7
2022-11-03T03:35:45.856Z,1.7
2022-11-03T03:36:45.849Z,1.7
2022-11-03T03:37:45.838Z,1.7
2022-11-03T03:38:45.833Z,1.7
2022-11-03T03:39:45.836Z,1.7
2022-11-03T03:40:45.818Z,1.7
2022-11-03T03:41:45.826Z,1.7
2022-11-03T03:42:45.820Z,1.6
2022-11-03T03:43:45.825Z,1.6
2022-11-03T03:44:45.827Z,1.6
2022-11-03T03:45:45.838Z,1.6
2022-11-03T03:46:45.827Z,1.6
2022-11-03T03:47:45.814Z,1.6
2022-11-03T03:48:45.832Z,1.6
2022-11-03T03:49:45.860Z,1.6
2022-11-03T03:50:45.823Z,1.5
2022-11-03T03:51:45.848Z,1.5
2022-11-03T03:52:45.838Z,1.5
2022-11-03T03:53:45.845Z,1.5
2022-11-03T03:54:45.837Z,1.5
2022-11-03T03:55:45.838Z,1.5
2022-11-03T03:56:45.832Z,1.5
2022-11-03T03:57:45.837Z,1.5
2022-11-03T03:58:45.844Z,1.5
2022-11-03T03:59:45.850Z,1.6
2022-11-03T04:00:45.913Z,1.6
2022-11-03T04:01:45.929Z,1.7
2022-11-03T04:02:45.862Z,1.7
2022-11-03T04:03:45.859Z,1.7
2022-11-03T04:04:45.860Z,1.8
2022-11-03T04:05:45.883Z,1.8
2022-11-03T04:06:45.848Z,1.8
2022-11-03T04:07:45.851Z,1.7
2022-11-03T04:08:45.852Z,1.7
2022-11-03T04:09:45.888Z,1.6
2022-11-03T04:10:45.875Z,1.6
2022-11-03T04:11:45.869Z,1.5
2022-11-03T04:12:45.869Z,1.5
2022-11-03T04:13:45.881Z,1.4
2022-11-03T04:14:45.883Z,1.4
2022-11-03T04:15:45.875Z,1.4
2022-11-03T04:16:45.895Z,1.3
2022-11-03T04:17:45.897Z,1.3
2022-11-03T04:18:45.965Z,1.3
2022-11-03T04:19:45.884Z,1.3
2022-11-03T04:20:45.900Z,1.4
2022-11-03T04:21:45.899Z,1.4
2022-11-03T04:22:45.912Z,1.4
2022-11-03T04:23:45.905Z,1.4
2022-11-03T04:24:45.909Z,1.4
2022-11-03T04:25:45.889Z,1.4
2022-11-03T04:26:45.915Z,1.5
2022-11-03T04:27:45.933Z,1.5
2022-11-03T04:28:46.045Z,1.5
2022-11-03T04:29:45.915Z,1.5
2022-11-03T04:30:45.922Z,1.5
2022-11-03T04:31:45.939Z,1.5
2022-11-03T04:32:45.933Z,1.5
2022-11-03T04:33:45.927Z,1.4
2022-11-03T04:34:45.922Z,1.4
2022-11-03T04:35:45.934Z,1.4
2022-11-03T04:36:45.927Z,1.3
2022-11-03T04:37:47.721Z,1.3
2022-11-03T04:38:45.907Z,1.3
2022-11-03T04:39:45.993Z,1.2
2022-11-03T04:40:47.968Z,1.2
2022-11-03T04:41:45.932Z,1.2
2022-11-03T04:42:45.941Z,1.2
2022-11-03T04:43:45.968Z,1.2
2022-11-03T04:44:45.957Z,1.2
2022-11-03T04:45:45.945Z,1.2
2022-11-03T04:46:45.974Z,1.3
2022-11-03T04:47:45.955Z,1.3
2022-11-03T04:48:45.961Z,1.3
2022-11-03T04:49:45.975Z,1.4
2022-11-03T04:50:47.008Z,1.5
2022-11-03T04:51:45.989Z,1.5
2022-11-03T04:52:45.989Z,1.6
2022-11-03T04:53:46.015Z,1.6
2022-11-03T04:54:46.015Z,1.6
2022-11-03T04:55:45.988Z,1.7
2022-11-03T04:56:45.983Z,1.7
2022-11-03T04:57:45.972Z,1.8
2022-11-03T04:58:45.978Z,1.8
2022-11-03T04:59:46.011Z,1.8
2022-11-03T05:00:46.038Z,1.8
2022-11-03T05:01:46.220Z,1.8
2022-11-03T05:02:47.298Z,1.8
2022-11-03T05:03:46.005Z,1.9
2022-11-03T05:04:46.000Z,1.9
2022-11-03T05:05:45.992Z,1.9
2022-11-03T05:06:46.012Z,1.9
2022-11-03T05:07:46.025Z,1.9
2022-11-03T05:08:45.986Z,1.9
2022-11-03T05:09:46.049Z,1.8
2022-11-03T05:10:45.997Z,1.8
2022-11-03T05:11:46.030Z,1.8
2022-11-03T05:12:46.010Z,1.8
2022-11-03T05:13:46.026Z,1.8
2022-11-03T05:14:46.051Z,1.8
2022-11-03T05:15:46.027Z,1.8
2022-11-03T05:16:46.017Z,1.8
2022-11-03T05:17:46.131Z,1.7
2022-11-03T05:18:46.053Z,1.7
2022-11-03T05:19:46.028Z,1.7
2022-11-03T05:20:46.048Z,1.7
2022-11-03T05:21:46.022Z,1.7
2022-11-03T05:22:46.020Z,1.7
2022-11-03T05:23:46.043Z,1.7
2022-11-03T05:24:46.045Z,1.6
2022-11-03T05:25:46.071Z,1.6
2022-11-03T05:26:46.059Z,1.6
2022-11-03T05:27:46.055Z,1.6
2022-11-03T05:28:46.033Z,1.6
2022-11-03T05:29:46.053Z,1.6
2022-11-03T05:30:46.079Z,1.6
2022-11-03T05:31:46.061Z,1.6
2022-11-03T05:32:46.047Z,1.6
2022-11-03T05:33:46.060Z,1.6
2022-11-03T05:34:46.063Z,1.5
2022-11-03T05:35:46.088Z,1.5
2022-11-03T05:36:46.055Z,1.5
2022-11-03T05:37:46.077Z,1.5
2022-11-03T05:38:46.075Z,1.5
2022-11-03T05:39:46.098Z,1.5
2022-11-03T05:40:46.071Z,1.5
2022-11-03T05:41:46.105Z,1.5
2022-11-03T05:42:46.089Z,1.5
2022-11-03T05:43:46.111Z,1.4
2022-11-03T05:44:46.148Z,1.4
2022-11-03T05:45:46.087Z,1.4
2022-11-03T05:46:46.086Z,1.3
2022-11-03T05:47:46.085Z,1.3
2022-11-03T05:48:46.087Z,1.3
2022-11-03T05:49:46.093Z,1.2
2022-11-03T05:50:46.096Z,1.2
2022-11-03T05:51:46.110Z,1.2
2022-11-03T05:52:46.132Z,1.2
2022-11-03T05:53:46.126Z,1.2
2022-11-03T05:54:46.116Z,1.2
2022-11-03T05:55:46.107Z,1.3
2022-11-03T05:56:46.107Z,1.3
2022-11-03T05:57:46.136Z,1.3
2022-11-03T05:58:46.106Z,1.4
2022-11-03T05:59:46.124Z,1.4
2022-11-03T06:00:48.708Z,1.5
2022-11-03T06:01:46.209Z,1.6
2022-11-03T06:02:46.141Z,1.6
2022-11-03T06:03:46.104Z,1.7
2022-11-03T06:04:46.104Z,1.7
2022-11-03T06:05:46.122Z,1.8
2022-11-03T06:06:46.154Z,1.8
2022-11-03T06:07:46.144Z,1.9
2022-11-03T06:08:46.298Z,1.9
2022-11-03T06:09:46.169Z,1.9
2022-11-03T06:10:46.178Z,2
2022-11-03T06:11:46.150Z,2
2022-11-03T06:12:46.170Z,2
2022-11-03T06:13:46.163Z,2
2022-11-03T06:14:46.198Z,2
2022-11-03T06:15:46.165Z,2
2022-11-03T06:16:46.157Z,2
2022-11-03T06:17:46.184Z,2
2022-11-03T06:18:46.164Z,2
2022-11-03T06:19:46.174Z,2
2022-11-03T06:20:46.172Z,2
2022-11-03T06:21:46.172Z,2
2022-11-03T06:22:46.176Z,2
2022-11-03T06:23:46.188Z,2
2022-11-03T06:24:46.176Z,2
2022-11-03T06:25:46.194Z,2
2022-11-03T06:26:46.171Z,2
2022-11-03T06:27:46.167Z,2
2022-11-03T06:28:46.160Z,2
2022-11-03T06:29:46.197Z,2
2022-11-03T06:30:46.166Z,2.1
2022-11-03T06:31:46.182Z,2.1
2022-11-03T06:32:46.178Z,2.1
2022-11-03T06:33:46.169Z,2.1
2022-11-03T06:34:46.180Z,2.1
2022-11-03T06:35:46.308Z,2.1
2022-11-03T06:36:46.185Z,2.1
2022-11-03T06:37:46.198Z,2.1
2022-11-03T06:38:46.188Z,2.1
2022-11-03T06:39:46.188Z,2.1
2022-11-03T06:40:46.237Z,2.1
2022-11-03T06:41:46.211Z,2.2
2022-11-03T06:42:46.198Z,2.2
2022-11-03T06:43:46.203Z,2.2
2022-11-03T06:44:46.215Z,2.2
2022-11-03T06:45:46.217Z,2.2
2022-11-03T06:46:46.241Z,2.2
2022-11-03T06:47:46.218Z,2.2
2022-11-03T06:48:46.216Z,2.3
2022-11-03T06:49:46.218Z,2.3
2022-11-03T06:50:46.219Z,2.3
2022-11-03T06:51:46.217Z,2.3
2022-11-03T06:52:46.261Z,2.3
2022-11-03T06:53:46.223Z,2.3
2022-11-03T06:54:46.232Z,2.3
2022-11-03T06:55:46.217Z,2.3
2022-11-03T06:56:46.221Z,2.3
2022-11-03T06:57:46.238Z,2.3
2022-11-03T06:58:46.224Z,2.3
2022-11-03T06:59:46.239Z,2.3
2022-11-03T07:00:50.787Z,2.3
2022-11-03T07:01:46.390Z,2.3
2022-11-03T07:02:46.234Z,2.3
2022-11-03T07:03:46.230Z,2.3
2022-11-03T07:04:46.251Z,2.3
2022-11-03T07:05:46.240Z,2.3
2022-11-03T07:06:50.465Z,2.3
2022-11-03T07:07:46.291Z,2.3
2022-11-03T07:08:46.270Z,2.3
2022-11-03T07:09:46.261Z,2.3
2022-11-03T07:10:46.298Z,2.4
2022-11-03T07:11:46.330Z,2.4
2022-11-03T07:12:46.318Z,2.4
2022-11-03T07:13:46.301Z,2.5
2022-11-03T07:14:46.301Z,2.5
2022-11-03T07:15:46.325Z,2.5
2022-11-03T07:16:46.313Z,2.6
2022-11-03T07:17:46.315Z,2.6
2022-11-03T07:18:46.297Z,2.6
2022-11-03T07:19:46.291Z,2.6
2022-11-03T07:20:46.296Z,2.7
2022-11-03T07:21:46.299Z,2.7
2022-11-03T07:22:46.304Z,2.7
2022-11-03T07:23:47.165Z,2.8
2022-11-03T07:24:46.298Z,2.8
2022-11-03T07:25:46.305Z,2.8
2022-11-03T07:26:46.304Z,2.8
2022-11-03T07:27:46.299Z,2.9
2022-11-03T07:28:46.300Z,2.9
2022-11-03T07:29:46.320Z,2.9
2022-11-03T07:30:46.295Z,2.9
2022-11-03T07:31:46.308Z,2.9
2022-11-03T07:32:46.301Z,2.9
2022-11-03T07:33:46.325Z,3
2022-11-03T07:34:46.310Z,3
2022-11-03T07:36:13.554Z,3
2022-11-03T07:36:48.952Z,3
2022-11-03T07:37:46.310Z,3.1
2022-11-03T07:38:46.313Z,3.1
2022-11-03T07:39:46.315Z,3.1
2022-11-03T07:40:46.323Z,3.1
2022-11-03T07:41:46.295Z,3.2
2022-11-03T07:42:46.313Z,3.2
2022-11-03T07:43:46.290Z,3.2
2022-11-03T07:44:46.304Z,3.2
2022-11-03T07:45:46.298Z,3.3
2022-11-03T07:46:46.302Z,3.3
2022-11-03T07:47:46.293Z,3.3
2022-11-03T07:48:46.337Z,3.3
2022-11-03T07:49:46.322Z,3.3
2022-11-03T07:50:46.315Z,3.4
2022-11-03T07:51:46.316Z,3.4
2022-11-03T07:52:46.306Z,3.4
2022-11-03T07:53:46.318Z,3.4
2022-11-03T07:54:46.311Z,3.4
2022-11-03T07:55:46.369Z,3.4
2022-11-03T07:56:46.314Z,3.5
2022-11-03T07:57:46.309Z,3.5
2022-11-03T07:58:46.304Z,3.5
2022-11-03T07:59:46.347Z,3.5
2022-11-03T08:00:46.315Z,3.5
2022-11-03T08:01:46.434Z,3.6
2022-11-03T08:02:46.367Z,3.6
2022-11-03T08:03:46.330Z,3.6
2022-11-03T08:04:46.347Z,3.6
2022-11-03T08:05:46.397Z,3.7
2022-11-03T08:06:46.341Z,3.7
2022-11-03T08:07:46.356Z,3.8
2022-11-03T08:08:46.420Z,3.8
2022-11-03T08:09:46.353Z,3.9
2022-11-03T08:10:46.357Z,3.9
2022-11-03T08:11:46.357Z,4
2022-11-03T08:12:46.354Z,4
2022-11-03T08:13:46.344Z,4.1
2022-11-03T08:14:46.361Z,4.2
2022-11-03T08:15:46.379Z,4.3
2022-11-03T08:16:46.378Z,4.4
2022-11-03T08:17:46.375Z,4.5
2022-11-03T08:18:46.371Z,4.5
2022-11-03T08:19:46.378Z,4.7
2022-11-03T08:20:46.389Z,4.7
2022-11-03T08:21:46.391Z,4.8
2022-11-03T08:22:59.219Z,4.8
2022-11-03T08:23:47.739Z,4.9
2022-11-03T08:24:46.387Z,5
2022-11-03T08:25:46.381Z,5
2022-11-03T08:26:46.385Z,5.1
2022-11-03T08:27:46.373Z,5.1
2022-11-03T08:28:46.385Z,5.2
2022-11-03T08:29:46.388Z,5.2
2022-11-03T08:30:46.374Z,5.2
2022-11-03T08:31:46.388Z,5.3
2022-11-03T08:32:46.388Z,5.3
2022-11-03T08:33:46.385Z,5.3
2022-11-03T08:34:46.426Z,5.3
2022-11-03T08:35:46.393Z,5.4
2022-11-03T08:36:46.409Z,5.4
2022-11-03T08:37:46.431Z,5.4
2022-11-03T08:38:46.403Z,5.4
2022-11-03T08:39:46.428Z,5.4
2022-11-03T08:40:48.234Z,5.4
2022-11-03T08:41:46.410Z,5.4
2022-11-03T08:42:46.407Z,5.4
2022-11-03T08:43:46.410Z,5.4
2022-11-03T08:44:46.444Z,5.4
2022-11-03T08:45:46.422Z,5.4
2022-11-03T08:46:46.432Z,5.4
2022-11-03T08:47:46.445Z,5.4
2022-11-03T08:48:46.508Z,5.4
2022-11-03T08:49:46.441Z,5.4
2022-11-03T08:50:46.430Z,5.5
2022-11-03T08:51:46.422Z,5.5
2022-11-03T08:52:46.443Z,5.5
2022-11-03T08:53:46.566Z,5.5
2022-11-03T08:54:46.452Z,5.5
2022-11-03T08:55:46.434Z,5.5
2022-11-03T08:56:46.447Z,5.6
2022-11-03T08:57:46.452Z,5.6
2022-11-03T08:58:46.433Z,5.6
2022-11-03T08:59:46.465Z,5.7
2022-11-03T09:00:46.456Z,5.7
2022-11-03T09:01:46.582Z,5.7
2022-11-03T09:02:46.473Z,5.8
2022-11-03T09:03:46.551Z,5.8
2022-11-03T09:04:46.462Z,5.9
2022-11-03T09:05:46.511Z,5.9
2022-11-03T09:06:46.496Z,6
2022-11-03T09:10:46.480Z,6.2
2022-11-03T09:11:46.481Z,6.3
2022-11-03T09:12:46.479Z,6.3
2022-11-03T09:13:46.479Z,6.4
2022-11-03T09:14:46.501Z,6.5
2022-11-03T09:15:46.487Z,6.5
2022-11-03T09:16:46.497Z,6.6
2022-11-03T09:17:46.514Z,6.6
2022-11-03T09:18:46.507Z,6.7
2022-11-03T09:19:46.498Z,6.7
2022-11-03T09:20:46.493Z,6.8
2022-11-03T09:21:46.727Z,6.8
2022-11-03T09:22:46.541Z,6.9
2022-11-03T09:23:46.531Z,6.9
2022-11-03T09:24:46.527Z,7
2022-11-03T09:25:46.554Z,7
2022-11-03T09:26:46.538Z,7
2022-11-03T09:27:46.541Z,7.1
2022-11-03T09:28:46.528Z,7.1
2022-11-03T09:30:11.440Z,7.2
2022-11-03T09:30:46.533Z,7.2
2022-11-03T09:31:46.596Z,7.2
2022-11-03T09:32:46.559Z,7.3
2022-11-03T09:33:46.564Z,7.3
2022-11-03T09:34:46.595Z,7.4
2022-11-03T09:35:46.563Z,7.5
2022-11-03T09:36:50.738Z,7.5
2022-11-03T09:37:46.583Z,7.6
2022-11-03T09:38:46.579Z,7.7
2022-11-03T09:39:46.586Z,7.7
2022-11-03T09:41:57.757Z,7.8
2022-11-03T09:42:46.555Z,7.9
2022-11-03T09:43:46.587Z,7.9
2022-11-03T09:44:46.577Z,7.9
2022-11-03T09:45:46.612Z,8
2022-11-03T09:46:46.598Z,8.1
2022-11-03T09:47:46.599Z,8.1
2022-11-03T09:48:46.611Z,8.1
2022-11-03T09:49:46.585Z,8.2
2022-11-03T09:50:46.597Z,8.3
2022-11-03T09:51:46.602Z,8.3
2022-11-03T09:52:51.240Z,8.4
2022-11-03T09:53:46.640Z,8.4
2022-11-03T09:54:46.622Z,8.5
2022-11-03T09:55:46.605Z,8.5
2022-11-03T09:56:46.605Z,8.5
2022-11-03T09:57:46.644Z,8.6
2022-11-03T09:58:49.873Z,8.6
2022-11-03T09:59:46.614Z,8.7
2022-11-03T10:00:46.717Z,8.7
2022-11-03T10:01:46.727Z,8.8
2022-11-03T10:02:46.640Z,8.8
2022-11-03T10:03:46.673Z,8.9
2022-11-03T10:04:46.635Z,9
2022-11-03T10:05:46.632Z,9.1
2022-11-03T10:06:46.749Z,9.1
2022-11-03T10:07:46.692Z,9.2
2022-11-03T10:08:46.666Z,9.2
2022-11-03T10:09:46.655Z,9.3
2022-11-03T10:10:46.670Z,9.4
2022-11-03T10:11:46.652Z,9.5
2022-11-03T10:12:46.671Z,9.6
2022-11-03T10:13:46.705Z,9.8
2022-11-03T10:14:46.681Z,9.9
2022-11-03T10:15:46.662Z,10
2022-11-03T10:16:50.814Z,10.1
2022-11-03T10:17:46.677Z,10.2
2022-11-03T10:18:46.683Z,10.2
2022-11-03T10:19:46.663Z,10.4
2022-11-03T10:20:46.679Z,10.5
2022-11-03T10:21:46.677Z,10.6
2022-11-03T10:22:46.666Z,10.6
2022-11-03T10:23:46.676Z,10.8
2022-11-03T10:24:46.678Z,10.8
2022-11-03T10:25:46.694Z,10.9
2022-11-03T10:26:46.677Z,11
2022-11-03T10:27:46.683Z,11
2022-11-03T10:28:46.695Z,11.1
2022-11-03T10:29:48.485Z,11.1
2022-11-03T10:31:09.851Z,11.2
2022-11-03T10:31:46.691Z,11.3
2022-11-03T10:32:46.705Z,11.3
2022-11-03T10:33:46.718Z,11.4
2022-11-03T10:34:46.702Z,11.4
2022-11-03T10:35:46.705Z,11.5
2022-11-03T10:36:50.392Z,11.5
2022-11-03T10:37:46.706Z,11.6
2022-11-03T10:38:46.746Z,11.6
2022-11-03T10:39:46.721Z,11.6
2022-11-03T10:40:48.040Z,11.6
2022-11-03T10:41:46.725Z,11.6
2022-11-03T10:42:46.703Z,11.6
2022-11-03T10:43:46.745Z,11.6
2022-11-03T10:44:46.720Z,11.6
2022-11-03T10:45:46.747Z,11.6
2022-11-03T10:46:51.189Z,11.6
2022-11-03T10:47:46.774Z,11.6
2022-11-03T10:48:46.765Z,11.6
2022-11-03T10:49:46.742Z,11.6
2022-11-03T10:50:46.791Z,11.6
2022-11-03T10:51:46.730Z,11.6
2022-11-03T10:52:46.748Z,11.6
2022-11-03T10:53:46.801Z,11.6
2022-11-03T10:54:46.757Z,11.6
2022-11-03T10:55:46.748Z,11.6
2022-11-03T10:56:46.766Z,11.6
2022-11-03T10:57:50.455Z,11.7
2022-11-03T10:58:46.836Z,11.7
2022-11-03T10:59:46.757Z,11.7
2022-11-03T11:00:46.813Z,11.8
2022-11-03T11:01:47.054Z,11.8
2022-11-03T11:02:46.771Z,11.8
2022-11-03T11:03:46.816Z,11.8
2022-11-03T11:04:46.764Z,11.8
2022-11-03T11:05:46.767Z,11.8
2022-11-03T11:06:46.776Z,11.8
2022-11-03T11:07:46.857Z,11.9
2022-11-03T11:08:46.788Z,11.9
2022-11-03T11:09:46.829Z,11.9
2022-11-03T11:10:46.776Z,11.9
2022-11-03T11:11:46.801Z,11.9
2022-11-03T11:12:46.790Z,11.9
2022-11-03T11:13:46.823Z,12
2022-11-03T11:14:46.803Z,12
2022-11-03T11:15:46.798Z,12
2022-11-03T11:16:46.826Z,12
2022-11-03T11:17:46.859Z,12.1
2022-11-03T11:18:46.801Z,12.1
2022-11-03T11:19:46.828Z,12.1
2022-11-03T11:20:46.814Z,12.2
2022-11-03T11:21:46.807Z,12.2
2022-11-03T11:22:46.794Z,12.2
2022-11-03T11:23:46.802Z,12.3
2022-11-03T11:24:46.815Z,12.3
2022-11-03T11:25:46.802Z,12.3
2022-11-03T11:26:46.812Z,12.3
2022-11-03T11:27:46.835Z,12.4
2022-11-03T11:28:46.828Z,12.4
2022-11-03T11:29:46.806Z,12.4
2022-11-03T11:30:46.813Z,12.4
2022-11-03T11:31:46.980Z,12.5
2022-11-03T11:32:46.805Z,12.5
2022-11-03T11:33:46.842Z,12.5
2022-11-03T11:34:46.812Z,12.6
2022-11-03T11:35:47.033Z,12.6
2022-11-03T11:36:46.824Z,12.7
2022-11-03T11:37:46.826Z,12.7
2022-11-03T11:38:46.837Z,12.8
2022-11-03T11:39:46.833Z,12.8
2022-11-03T11:40:46.868Z,12.9
2022-11-03T11:41:46.850Z,13.1
2022-11-03T11:42:46.874Z,13.1
2022-11-03T11:43:46.864Z,13.3
2022-11-03T11:44:46.856Z,13.3
2022-11-03T11:45:46.864Z,13.4
2022-11-03T11:46:46.855Z,13.5
2022-11-03T11:47:46.845Z,13.6
2022-11-03T11:48:46.886Z,13.6
2022-11-03T11:49:46.912Z,13.7
2022-11-03T11:50:46.858Z,13.8
2022-11-03T11:51:46.863Z,13.8
2022-11-03T11:52:46.898Z,13.9
2022-11-03T11:53:50.913Z,13.9
2022-11-03T11:54:46.854Z,14
2022-11-03T11:55:46.855Z,14.1
2022-11-03T11:56:46.882Z,14.1
2022-11-03T11:57:46.901Z,14.2
2022-11-03T11:58:46.883Z,14.3
2022-11-03T11:59:46.871Z,14.4
2022-11-03T12:00:46.859Z,14.4
2022-11-03T12:01:46.939Z,14.6
2022-11-03T12:02:46.860Z,14.7
2022-11-03T12:03:46.922Z,14.8
2022-11-03T12:04:46.886Z,14.8
2022-11-03T12:05:46.914Z,14.9
2022-11-03T12:06:46.924Z,15
2022-11-03T12:07:46.917Z,15
2022-11-03T12:08:46.913Z,15.1
2022-11-03T12:09:46.883Z,15.1
2022-11-03T12:10:46.986Z,15.1
2022-11-03T12:11:47.595Z,15.2
2022-11-03T12:12:46.886Z,15.2
2022-11-03T12:13:46.920Z,15.2
2022-11-03T12:14:46.903Z,15.2
2022-11-03T12:15:46.893Z,15.2
2022-11-03T12:16:46.908Z,15.2
2022-11-03T12:17:46.925Z,15.2
2022-11-03T12:18:50.479Z,15.2
2022-11-03T12:19:46.932Z,15.2
2022-11-03T12:20:46.915Z,15.2
2022-11-03T12:21:46.944Z,15.2
2022-11-03T12:22:46.930Z,15.1
2022-11-03T12:23:46.941Z,15.1
2022-11-03T12:24:46.969Z,15.1
2022-11-03T12:25:46.925Z,15.1
2022-11-03T12:26:46.977Z,15.1
2022-11-03T12:27:46.942Z,15.1
2022-11-03T12:28:46.962Z,15.1
2022-11-03T12:29:46.944Z,15.1
2022-11-03T12:30:46.945Z,15.1
2022-11-03T12:31:46.951Z,15.1
2022-11-03T12:32:46.951Z,15.1
2022-11-03T12:33:46.960Z,15.1
2022-11-03T12:34:46.946Z,15.1
2022-11-03T12:35:46.996Z,15
2022-11-03T12:36:49.625Z,15
2022-11-03T12:37:47.007Z,15
2022-11-03T12:38:46.981Z,15
2022-11-03T12:39:46.978Z,15
2022-11-03T12:40:46.979Z,15
2022-11-03T12:41:46.970Z,14.9
2022-11-03T12:42:46.977Z,14.9
2022-11-03T12:43:47.109Z,14.9
2022-11-03T12:44:47.020Z,14.9
2022-11-03T12:45:46.983Z,14.9
2022-11-03T12:46:47.125Z,14.9
2022-11-03T12:47:46.986Z,14.8
2022-11-03T12:48:46.998Z,14.8
2022-11-03T12:49:47.015Z,14.8
2022-11-03T12:50:47.001Z,14.8
2022-11-03T12:51:47.020Z,14.8
2022-11-03T12:52:46.988Z,14.8
2022-11-03T12:53:47.021Z,14.8
2022-11-03T12:54:46.983Z,14.8
2022-11-03T12:55:47.003Z,14.8
2022-11-03T12:56:47.033Z,14.8
2022-11-03T12:57:47.042Z,14.7
2022-11-03T12:58:47.013Z,14.7
2022-11-03T12:59:47.054Z,14.7
2022-11-03T13:00:49.883Z,14.7
2022-11-03T13:01:47.189Z,14.7
2022-11-03T13:02:47.126Z,14.7
2022-11-03T13:03:47.025Z,14.7
2022-11-03T13:04:47.023Z,14.7
2022-11-03T13:05:47.029Z,14.7
2022-11-03T13:06:47.061Z,14.7
2022-11-03T13:07:47.037Z,14.6
2022-11-03T13:08:47.864Z,14.6
2022-11-03T13:09:47.047Z,14.6
2022-11-03T13:10:47.030Z,14.6
2022-11-03T13:11:47.027Z,14.6
2022-11-03T13:12:47.030Z,14.6
2022-11-03T13:13:47.060Z,14.6
2022-11-03T13:14:48.703Z,14.6
2022-11-03T13:15:47.029Z,14.6
2022-11-03T13:16:47.027Z,14.6
2022-11-03T13:18:14.816Z,14.6
2022-11-03T13:18:47.050Z,14.6
2022-11-03T13:19:47.029Z,14.6
2022-11-03T13:20:47.041Z,14.6
2022-11-03T13:21:47.047Z,14.6
2022-11-03T13:22:47.049Z,14.6
2022-11-03T13:23:47.063Z,14.6
2022-11-03T13:24:47.087Z,14.6
2022-11-03T13:25:47.283Z,14.6
2022-11-03T13:26:47.048Z,14.6
2022-11-03T13:27:47.063Z,14.6
2022-11-03T13:28:47.162Z,14.6
2022-11-03T13:29:47.060Z,14.6
2022-11-03T13:30:47.071Z,14.6
2022-11-03T13:31:47.065Z,14.6
2022-11-03T13:32:47.070Z,14.6
2022-11-03T13:33:47.072Z,14.5
2022-11-03T13:34:47.066Z,14.5
2022-11-03T13:35:47.208Z,14.5
2022-11-03T13:36:47.077Z,14.5
2022-11-03T13:37:47.106Z,14.5
2022-11-03T13:38:47.093Z,14.5
2022-11-03T13:39:47.084Z,14.5
2022-11-03T13:41:08.288Z,14.4
2022-11-03T13:41:47.135Z,14.4
2022-11-03T13:42:47.107Z,14.4
2022-11-03T13:43:47.123Z,14.4
2022-11-03T13:44:47.185Z,14.4
2022-11-03T13:45:47.114Z,14.3
2022-11-03T13:46:47.125Z,14.3
2022-11-03T13:50:16.406Z,14.3